Time;durP1;ratioP1;P1;durP2;ratioP2;P2;SDS_P1;SDS_P2;PMS_P1;PMS_P2;Temp;Humidity;BMP_temperature;BMP_pressure;BME280_temperature;BME280_humidity;BME280_pressure;Samples;Min_cycle;Max_cycle;Signal;HPM_P1;HPM_P2
2022/09/30 00:01:33;;;;;;;0.10;0.10;;;14.60;99.90;;;;;;4997810;28;20036;-77
2022/09/30 00:04:00;;;;;;;0.10;0.10;;;14.60;99.90;;;;;;4997786;28;20230;-77
2022/09/30 00:06:27;;;;;;;0.10;0.10;;;14.70;99.90;;;;;;4997437;28;20014;-77
2022/09/30 00:08:53;;;;;;;0.10;0.10;;;14.80;99.90;;;;;;4997617;28;20127;-77
2022/09/30 00:11:24;;;;;;;0.10;0.10;;;14.90;99.90;;;;;;4997530;28;20110;-76
2022/09/30 00:13:51;;;;;;;0.10;0.10;;;15.00;99.90;;;;;;5000122;28;20093;-76
2022/09/30 00:16:20;;;;;;;0.10;0.10;;;15.00;99.90;;;;;;5001697;28;20042;-77
2022/09/30 00:18:45;;;;;;;0.10;0.10;;;15.00;99.90;;;;;;5001382;28;20038;-77
2022/09/30 00:21:12;;;;;;;0.10;0.10;;;15.10;99.90;;;;;;5001592;28;20382;-77
2022/09/30 00:23:39;;;;;;;0.10;0.10;;;15.20;99.90;;;;;;5002055;28;20132;-77
2022/09/30 00:26:10;;;;;;;0.10;0.10;;;15.30;99.90;;;;;;5001399;28;20080;-77
2022/09/30 00:28:37;;;;;;;0.10;0.10;;;15.50;99.90;;;;;;5001678;28;20032;-77
2022/09/30 00:31:06;;;;;;;0.10;0.10;;;15.50;99.90;;;;;;5001700;28;20251;-77
2022/09/30 00:33:32;;;;;;;0.10;0.10;;;15.50;99.90;;;;;;5000532;28;20037;-77
2022/09/30 00:35:58;;;;;;;2.50;2.40;;;15.50;99.90;;;;;;5000314;28;20046;-85
2022/09/30 00:38:24;;;;;;;0.10;0.10;;;13.70;99.90;;;;;;5001998;28;20547;-77
2022/09/30 00:40:50;;;;;;;0.10;0.10;;;15.50;99.90;;;;;;4999812;28;20151;-77
2022/09/30 00:43:40;;;;;;;0.10;0.10;;;15.50;99.90;;;;;;5000224;28;20471;-79
2022/09/30 00:46:33;;;;;;;0.10;0.10;;;15.50;99.90;;;;;;5001244;28;20240;-77
2022/09/30 00:49:06;;;;;;;0.10;0.10;;;15.50;99.90;;;;;;4999747;28;20564;-76
2022/09/30 00:51:35;;;;;;;;;;;15.30;99.90;;;;;;5001505;28;20025;-77
2022/09/30 00:54:13;;;;;;;0.10;0.10;;;15.20;99.90;;;;;;5001189;28;20412;-77
2022/09/30 00:56:43;;;;;;;0.10;0.10;;;15.80;99.90;;;;;;5000931;28;20101;-81
2022/09/30 00:59:24;;;;;;;0.10;0.10;;;15.00;99.90;;;;;;5000974;28;20026;-79
2022/09/30 01:01:50;;;;;;;0.10;0.10;;;14.90;99.90;;;;;;5000966;28;20013;-84
2022/09/30 01:04:25;;;;;;;0.10;0.10;;;14.90;99.90;;;;;;5000819;28;20053;-80
2022/09/30 01:06:51;;;;;;;0.75;0.75;;;14.00;99.90;;;;;;5000749;28;20232;-76
2022/09/30 01:09:18;;;;;;;3.60;3.40;;;14.80;99.90;;;;;;5000904;28;20022;-76
2022/09/30 01:11:44;;;;;;;0.10;0.10;;;14.70;99.90;;;;;;4998928;28;20041;-77
2022/09/30 01:14:23;;;;;;;0.10;0.10;;;14.60;99.90;;;;;;5001116;28;20041;-76
2022/09/30 01:17:26;;;;;;;0.20;0.20;;;14.40;99.90;;;;;;5000489;28;20055;-77
2022/09/30 01:19:57;;;;;;;0.10;0.10;;;14.50;99.90;;;;;;5000649;28;20038;-76
2022/09/30 01:22:54;;;;;;;0.75;0.75;;;14.40;99.90;;;;;;5000935;28;20128;-77
2022/09/30 01:25:42;;;;;;;0.60;0.60;;;14.40;99.90;;;;;;4999478;28;20112;-78
2022/09/30 01:28:38;;;;;;;0.20;0.20;;;14.30;99.90;;;;;;4999228;28;20017;-78
2022/09/30 01:31:07;;;;;;;0.10;0.10;;;14.30;99.90;;;;;;5000261;28;20040;-79
2022/09/30 01:33:54;;;;;;;0.10;0.10;;;14.20;99.90;;;;;;5000419;28;20516;-76
2022/09/30 01:36:52;;;;;;;0.10;0.10;;;14.30;99.90;;;;;;5000118;28;20655;-77
2022/09/30 01:39:36;;;;;;;0.10;0.10;;;14.40;99.90;;;;;;4997294;28;20314;-77
2022/09/30 01:42:24;;;;;;;0.10;0.10;;;14.50;99.90;;;;;;4999995;28;20018;-76
2022/09/30 01:45:13;;;;;;;4.32;4.05;;;14.50;99.90;;;;;;4998731;28;20026;-82
2022/09/30 01:48:03;;;;;;;0.10;0.10;;;14.50;99.90;;;;;;4998531;28;20565;-78
2022/09/30 01:50:43;;;;;;;0.10;0.10;;;14.50;99.90;;;;;;4998550;28;20037;-83
2022/09/30 01:53:34;;;;;;;0.10;0.10;;;14.60;99.90;;;;;;5000066;28;20226;-79
2022/09/30 01:56:08;;;;;;;0.10;0.10;;;14.70;99.90;;;;;;5000259;28;20033;-77
2022/09/30 01:58:56;;;;;;;0.10;0.10;;;14.70;99.90;;;;;;4999876;28;20065;-80
2022/09/30 02:01:30;;;;;;;0.68;0.68;;;14.90;99.90;;;;;;4999826;28;20022;-76
2022/09/30 02:04:04;;;;;;;0.10;0.10;;;15.00;99.90;;;;;;4999996;28;20646;-82
2022/09/30 02:06:41;;;;;;;0.10;0.10;;;15.10;99.90;;;;;;4999701;28;20159;-76
2022/09/30 02:09:41;;;;;;;0.10;0.10;;;15.00;99.90;;;;;;4999659;28;20087;-77
2022/09/30 02:12:12;;;;;;;1.15;1.15;;;14.90;99.90;;;;;;4999288;28;20029;-77
2022/09/30 02:14:47;;;;;;;0.10;0.10;;;14.90;99.90;;;;;;4999578;28;20030;-82
2022/09/30 02:17:43;;;;;;;0.10;0.10;;;14.80;99.90;;;;;;5000443;28;20029;-82
2022/09/30 02:20:15;;;;;;;0.15;0.15;;;14.80;99.90;;;;;;5000148;28;20034;-79
2022/09/30 02:22:55;;;;;;;0.10;0.10;;;14.80;99.90;;;;;;5000850;28;20098;-76
2022/09/30 02:25:28;;;;;;;0.10;0.10;;;14.70;99.90;;;;;;5000936;28;20381;-76
2022/09/30 02:28:07;;;;;;;0.10;0.10;;;14.70;99.90;;;;;;5000046;28;20585;-76
2022/09/30 02:30:35;;;;;;;0.10;0.10;;;14.70;99.90;;;;;;4999063;28;20025;-76
2022/09/30 02:33:09;;;;;;;0.10;0.10;;;15.50;99.90;;;;;;4999158;28;20099;-76
2022/09/30 02:35:42;;;;;;;0.10;0.10;;;14.60;99.90;;;;;;4999124;28;20018;-75
2022/09/30 02:38:17;;;;;;;0.10;0.10;;;14.60;99.90;;;;;;4999669;28;20026;-77
2022/09/30 02:41:17;;;;;;;0.10;0.10;;;14.90;99.90;;;;;;4998933;28;20022;-87
2022/09/30 02:43:42;;;;;;;0.10;0.10;;;15.10;99.90;;;;;;4999124;28;20520;-76
2022/09/30 02:46:15;;;;;;;0.10;0.10;;;15.00;99.90;;;;;;4998944;28;20030;-76
2022/09/30 02:49:07;;;;;;;0.10;0.10;;;15.20;99.90;;;;;;4999141;28;20026;-75
2022/09/30 02:52:04;;;;;;;0.10;0.10;;;15.30;99.90;;;;;;4975958;28;20374;-77
2022/09/30 02:54:43;;;;;;;0.10;0.10;;;15.30;99.90;;;;;;4976371;28;20383;-76
2022/09/30 02:57:48;;;;;;;0.10;0.10;;;15.30;99.90;;;;;;4976184;28;20043;-77
2022/09/30 03:00:15;;;;;;;0.10;0.10;;;15.30;99.90;;;;;;4960009;28;20030;-82
2022/09/30 03:02:41;;;;;;;0.10;0.10;;;15.30;99.90;;;;;;4976047;28;20284;-75
2022/09/30 03:05:08;;;;;;;0.20;0.20;;;15.10;99.90;;;;;;4976305;28;20029;-82
2022/09/30 03:07:35;;;;;;;0.10;0.10;;;15.20;99.90;;;;;;4975869;28;20023;-78
2022/09/30 03:10:01;;;;;;;0.10;0.10;;;15.10;99.90;;;;;;4975832;28;20309;-77
2022/09/30 03:12:50;;;;;;;0.20;0.20;;;15.00;99.90;;;;;;4975821;28;20386;-76
2022/09/30 03:15:53;;;;;;;0.10;0.10;;;14.90;99.90;;;;;;4975455;28;20359;-76
2022/09/30 03:18:35;;;;;;;0.10;0.10;;;14.90;99.90;;;;;;4976053;28;20576;-76
2022/09/30 03:21:38;;;;;;;0.10;0.10;;;14.80;99.90;;;;;;4976145;28;20022;-85
2022/09/30 03:24:07;;;;;;;0.10;0.10;;;14.90;99.90;;;;;;4973382;28;20046;-76
2022/09/30 03:26:55;;;;;;;1.77;1.67;;;14.90;99.90;;;;;;4975558;28;20034;-79
2022/09/30 03:29:48;;;;;;;0.10;0.10;;;14.90;99.90;;;;;;4994025;28;20056;-76
2022/09/30 03:32:35;;;;;;;0.10;0.10;;;14.90;99.90;;;;;;4998200;28;20026;-75
2022/09/30 03:35:08;;;;;;;0.10;0.10;;;14.90;99.90;;;;;;4998321;28;20214;-76
2022/09/30 03:37:45;;;;;;;0.10;0.10;;;14.90;99.90;;;;;;4998376;28;20018;-76
2022/09/30 03:40:42;;;;;;;0.10;0.10;;;14.90;99.90;;;;;;4998658;28;20076;-76
2022/09/30 03:43:46;;;;;;;0.57;0.57;;;14.80;99.90;;;;;;4998158;28;20080;-76
2022/09/30 03:46:36;;;;;;;0.10;0.10;;;14.80;99.90;;;;;;4996696;28;20058;-75
2022/09/30 03:49:07;;;;;;;0.10;0.10;;;14.80;99.90;;;;;;5001391;28;20101;-76
2022/09/30 03:51:37;;;;;;;1.67;1.58;;;14.80;99.90;;;;;;5002023;28;20033;-76
2022/09/30 03:54:10;;;;;;;0.10;0.10;;;14.80;99.90;;;;;;5001751;28;20240;-76
2022/09/30 03:56:40;;;;;;;0.10;0.10;;;14.90;99.90;;;;;;5002199;28;20049;-75
2022/09/30 03:59:16;;;;;;;0.10;0.10;;;14.90;99.90;;;;;;5000282;28;20040;-75
2022/09/30 04:01:42;;;;;;;0.10;0.10;;;14.90;99.90;;;;;;5001932;28;20018;-75
2022/09/30 04:04:07;;;;;;;0.20;0.20;;;15.00;99.90;;;;;;5002196;28;20129;-76
2022/09/30 04:06:33;;;;;;;0.10;0.10;;;15.10;99.90;;;;;;5002267;28;20369;-76
2022/09/30 04:08:59;;;;;;;0.10;0.10;;;15.10;99.90;;;;;;5002021;28;20126;-79
2022/09/30 04:11:25;;;;;;;0.10;0.10;;;15.10;99.90;;;;;;5001758;28;20286;-76
2022/09/30 04:13:51;;;;;;;0.10;0.10;;;15.10;99.90;;;;;;5000474;28;20307;-76
2022/09/30 04:16:16;;;;;;;0.15;0.15;;;15.10;99.90;;;;;;5001975;28;20097;-76
2022/09/30 04:18:42;;;;;;;0.10;0.10;;;15.10;99.90;;;;;;5001611;28;20045;-76
2022/09/30 04:21:10;;;;;;;0.10;0.10;;;15.10;99.90;;;;;;5001169;28;20036;-76
2022/09/30 04:23:38;;;;;;;0.10;0.10;;;15.00;99.90;;;;;;5003524;28;20044;-76
2022/09/30 04:26:05;;;;;;;0.10;0.10;;;15.00;99.90;;;;;;5004007;28;20026;-75
2022/09/30 04:28:31;;;;;;;0.10;0.10;;;14.90;99.90;;;;;;5001349;28;20103;-76
2022/09/30 04:31:02;;;;;;;0.10;0.10;;;14.80;99.90;;;;;;5001579;28;20682;-75
2022/09/30 04:33:28;;;;;;;0.10;0.10;;;14.70;99.90;;;;;;5001186;28;20072;-77
2022/09/30 04:35:55;;;;;;;0.10;0.10;;;14.70;99.90;;;;;;4999962;28;20022;-76
2022/09/30 04:38:23;;;;;;;0.10;0.10;;;14.70;99.90;;;;;;5001443;28;20119;-76
2022/09/30 04:40:50;;;;;;;0.60;0.60;;;14.60;99.90;;;;;;4999939;28;20235;-76
2022/09/30 04:43:17;;;;;;;0.10;0.10;;;14.60;99.90;;;;;;5001590;28;20109;-82
2022/09/30 04:45:44;;;;;;;0.10;0.10;;;14.60;99.90;;;;;;5001448;28;20022;-76
2022/09/30 04:48:10;;;;;;;0.10;0.10;;;14.50;99.90;;;;;;5000987;28;20018;-76
2022/09/30 04:50:36;;;;;;;0.10;0.10;;;14.50;99.90;;;;;;5001065;28;20030;-76
2022/09/30 04:53:02;;;;;;;0.35;0.35;;;14.50;99.90;;;;;;5001302;28;20095;-82
2022/09/30 04:55:28;;;;;;;0.10;0.10;;;14.60;99.90;;;;;;4999617;28;20507;-83
2022/09/30 04:57:55;;;;;;;0.13;0.13;;;14.60;99.90;;;;;;5001044;28;20319;-81
2022/09/30 05:00:21;;;;;;;0.10;0.10;;;14.60;99.90;;;;;;4999890;28;20472;-81
2022/09/30 05:02:47;;;;;;;0.10;0.10;;;14.60;99.90;;;;;;5001184;28;20267;-77
2022/09/30 05:05:13;;;;;;;0.10;0.10;;;14.60;99.90;;;;;;4999930;28;20065;-75
2022/09/30 05:07:39;;;;;;;0.10;0.10;;;14.50;99.90;;;;;;5000802;28;20210;-77
2022/09/30 05:10:07;;;;;;;0.10;0.10;;;14.50;99.90;;;;;;5001337;28;20048;-80
2022/09/30 05:12:33;;;;;;;0.10;0.10;;;14.40;99.90;;;;;;5001193;28;20380;-79
2022/09/30 05:14:59;;;;;;;0.98;0.93;;;14.50;99.90;;;;;;5000965;28;20092;-76
2022/09/30 05:17:25;;;;;;;0.10;0.10;;;14.50;99.90;;;;;;5000843;28;20508;-76
2022/09/30 05:19:50;;;;;;;0.10;0.10;;;14.60;99.90;;;;;;5000534;28;20041;-77
2022/09/30 05:22:16;;;;;;;0.10;0.10;;;14.60;99.90;;;;;;5000527;28;20030;-77
2022/09/30 05:24:42;;;;;;;0.47;0.47;;;14.50;99.90;;;;;;5001403;28;20642;-76
2022/09/30 05:27:08;;;;;;;0.10;0.10;;;14.50;99.90;;;;;;5000769;28;20021;-76
2022/09/30 05:29:34;;;;;;;0.10;0.10;;;14.60;99.90;;;;;;4998978;28;20034;-77
2022/09/30 05:32:00;;;;;;;0.10;0.10;;;14.60;99.90;;;;;;5000681;28;20211;-76
2022/09/30 05:34:25;;;;;;;0.30;0.30;;;14.60;99.90;;;;;;5000890;28;20436;-76
2022/09/30 05:36:52;;;;;;;0.10;0.10;;;14.60;99.90;;;;;;4999071;28;20165;-82
2022/09/30 05:39:17;;;;;;;0.22;0.22;;;14.60;99.90;;;;;;5000562;28;20100;-76
2022/09/30 05:41:43;;;;;;;0.10;0.10;;;14.70;99.90;;;;;;5001167;28;20034;-75
2022/09/30 05:44:09;;;;;;;10.43;3.60;;;14.70;99.90;;;;;;5001432;28;20109;-75
2022/09/30 05:46:35;;;;;;;0.10;0.10;;;14.70;99.90;;;;;;5003425;28;20021;-77
2022/09/30 05:49:00;;;;;;;1.95;1.85;;;14.80;99.90;;;;;;5004339;28;20488;-76
2022/09/30 05:51:26;;;;;;;0.10;0.10;;;14.90;99.90;;;;;;5003799;28;20567;-78
2022/09/30 05:53:52;;;;;;;0.10;0.10;;;14.90;99.90;;;;;;5003001;28;20414;-84
2022/09/30 05:56:17;;;;;;;0.20;0.20;;;14.90;99.90;;;;;;5000625;28;20022;-77
2022/09/30 05:58:43;;;;;;;0.10;0.10;;;15.00;99.90;;;;;;5000877;28;20548;-76
2022/09/30 06:01:12;;;;;;;0.10;0.10;;;15.10;99.90;;;;;;5000915;28;20057;-76
2022/09/30 06:03:37;;;;;;;0.10;0.10;;;15.10;99.90;;;;;;5000953;28;20026;-87
2022/09/30 06:06:05;;;;;;;0.10;0.10;;;14.50;99.90;;;;;;4998839;28;20079;-79
2022/09/30 06:08:31;;;;;;;0.20;0.20;;;15.20;99.90;;;;;;5001170;28;20022;-76
2022/09/30 06:11:00;;;;;;;0.20;0.20;;;15.30;99.90;;;;;;5000762;28;20119;-82
2022/09/30 06:13:27;;;;;;;0.10;0.10;;;15.40;99.90;;;;;;5000882;28;20022;-78
2022/09/30 06:16:00;;;;;;;0.10;0.10;;;15.50;99.90;;;;;;5000443;28;20042;-78
2022/09/30 06:18:27;;;;;;;0.20;0.20;;;15.50;99.90;;;;;;5000217;28;20030;-81
2022/09/30 06:20:57;;;;;;;0.63;0.63;;;15.80;99.90;;;;;;5001069;28;20022;-76
2022/09/30 06:23:23;;;;;;;0.20;0.20;;;15.80;99.90;;;;;;5001872;28;20078;-76
2022/09/30 06:25:50;;;;;;;0.10;0.10;;;15.90;99.90;;;;;;5000468;28;20109;-76
2022/09/30 06:28:16;;;;;;;0.10;0.10;;;16.00;99.90;;;;;;5000497;28;20026;-77
2022/09/30 06:30:43;;;;;;;0.10;0.10;;;16.10;99.90;;;;;;5000053;28;20045;-90
2022/09/30 06:33:09;;;;;;;0.32;0.32;;;16.20;99.90;;;;;;4999488;28;20018;-78
2022/09/30 06:35:35;;;;;;;0.20;0.20;;;16.30;99.90;;;;;;4999292;28;20030;-77
2022/09/30 06:38:01;;;;;;;0.10;0.10;;;15.30;99.90;;;;;;4999204;28;20151;-81
2022/09/30 06:40:27;;;;;;;0.20;0.20;;;16.50;99.90;;;;;;4999854;28;20218;-80
2022/09/30 06:43:00;;;;;;;0.10;0.10;;;16.60;99.90;;;;;;4999477;28;20614;-80
2022/09/30 06:45:27;;;;;;;2.53;2.33;;;16.60;99.90;;;;;;4998910;28;20076;-76
2022/09/30 06:48:00;;;;;;;0.10;0.10;;;14.20;99.90;;;;;;4999118;28;20029;-78
2022/09/30 06:50:25;;;;;;;0.20;0.20;;;16.80;99.90;;;;;;4997558;28;20030;-78
2022/09/30 06:52:51;;;;;;;0.10;0.10;;;17.00;99.90;;;;;;4999047;28;20091;-77
2022/09/30 06:55:17;;;;;;;0.10;0.10;;;17.10;99.90;;;;;;4999375;28;20033;-86
2022/09/30 06:57:46;;;;;;;0.10;0.10;;;17.20;99.90;;;;;;4999953;28;20025;-76
2022/09/30 07:00:15;;;;;;;0.10;0.10;;;17.30;99.90;;;;;;4998997;28;20114;-78
2022/09/30 07:02:41;;;;;;;0.13;0.13;;;17.40;99.90;;;;;;4999609;28;20381;-77
2022/09/30 07:05:07;;;;;;;0.28;0.28;;;17.50;99.90;;;;;;4999302;28;20253;-77
2022/09/30 07:07:33;;;;;;;0.10;0.10;;;17.60;99.90;;;;;;4997688;28;20022;-76
2022/09/30 07:09:59;;;;;;;0.30;0.30;;;17.60;99.90;;;;;;4997206;28;20103;-76
2022/09/30 07:12:25;;;;;;;2.10;2.00;;;17.70;99.90;;;;;;4997473;28;20076;-80
2022/09/30 07:14:52;;;;;;;0.10;0.10;;;17.90;99.90;;;;;;4999294;28;20413;-76
2022/09/30 07:17:18;;;;;;;0.10;0.10;;;18.10;99.90;;;;;;4997912;28;20256;-78
2022/09/30 07:19:43;;;;;;;0.10;0.10;;;18.40;99.90;;;;;;4998705;28;20042;-79
2022/09/30 07:24:58;;;;;;;0.10;0.10;;;18.70;99.90;;;;;;4999358;28;20049;-80
2022/09/30 07:27:26;;;;;;;0.10;0.10;;;18.90;99.90;;;;;;4997280;28;20103;-77
2022/09/30 07:29:52;;;;;;;0.13;0.13;;;19.10;99.90;;;;;;4998780;28;20527;-82
2022/09/30 07:32:19;;;;;;;0.10;0.10;;;19.20;99.90;;;;;;5001379;28;20307;-78
2022/09/30 07:34:45;;;;;;;0.10;0.10;;;19.30;99.90;;;;;;5000502;28;20025;-80
2022/09/30 07:37:13;;;;;;;0.20;0.20;;;19.40;99.90;;;;;;4998583;28;20033;-77
2022/09/30 07:39:47;;;;;;;0.10;0.10;;;19.60;99.90;;;;;;4999560;28;20034;-80
2022/09/30 07:42:15;;;;;;;0.10;0.10;;;19.70;99.90;;;;;;4999052;28;20025;-78
2022/09/30 07:44:43;;;;;;;0.10;0.10;;;19.80;99.90;;;;;;4999800;28;20033;-81
2022/09/30 07:47:10;;;;;;;0.00;0.00;;;20.00;99.90;;;;;;4998800;28;20287;-77
2022/09/30 07:49:37;;;;;;;0.00;0.00;;;20.30;99.90;;;;;;4997967;28;20029;-80
2022/09/30 07:52:04;;;;;;;0.10;0.10;;;20.40;99.90;;;;;;4998324;28;20033;-82
2022/09/30 07:54:32;;;;;;;0.10;0.10;;;20.60;99.90;;;;;;5008766;28;20029;-76
2022/09/30 07:56:59;;;;;;;0.00;0.00;;;20.80;99.90;;;;;;5015202;28;20044;-79
2022/09/30 07:59:30;;;;;;;0.05;0.05;;;20.90;99.90;;;;;;5019278;28;20018;-77
2022/09/30 08:01:56;;;;;;;0.00;0.00;;;21.00;99.90;;;;;;5017280;28;20031;-76
2022/09/30 08:04:23;;;;;;;0.10;0.10;;;21.00;99.90;;;;;;5016251;28;20263;-78
2022/09/30 08:06:55;;;;;;;0.10;0.10;;;21.10;99.90;;;;;;5003869;28;20026;-76
2022/09/30 08:09:30;;;;;;;0.10;0.10;;;21.20;99.90;;;;;;5001597;28;20030;-77
2022/09/30 08:11:55;;;;;;;0.20;0.20;;;21.90;99.50;;;;;;5000934;28;20452;-76
2022/09/30 08:14:24;;;;;;;0.00;0.00;;;21.50;98.80;;;;;;5000599;28;20030;-78
2022/09/30 08:16:51;;;;;;;0.10;0.10;;;21.70;98.10;;;;;;5000748;28;20085;-77
2022/09/30 08:19:23;;;;;;;0.08;0.08;;;21.80;96.80;;;;;;4999849;28;20073;-78
2022/09/30 08:21:51;;;;;;;0.10;0.10;;;21.80;97.00;;;;;;4998996;28;20295;-79
2022/09/30 08:24:17;;;;;;;0.00;0.00;;;21.90;97.40;;;;;;4999231;28;20421;-78
2022/09/30 08:26:43;;;;;;;0.10;0.10;;;22.00;96.50;;;;;;4998946;28;20049;-77
2022/09/30 08:29:13;;;;;;;0.00;0.00;;;22.30;96.60;;;;;;4998980;28;20106;-77
2022/09/30 08:31:40;;;;;;;0.00;0.00;;;22.60;95.90;;;;;;4997221;28;20321;-86
2022/09/30 08:34:05;;;;;;;0.10;0.10;;;22.60;95.40;;;;;;4999746;28;20033;-81
2022/09/30 08:36:31;;;;;;;0.00;0.00;;;22.60;96.20;;;;;;5001670;28;20428;-85
2022/09/30 08:38:57;;;;;;;0.00;0.00;;;22.70;95.00;;;;;;4999826;28;20404;-79
2022/09/30 08:41:42;;;;;;;0.00;0.00;;;22.50;95.00;;;;;;5002658;28;20474;-79
2022/09/30 08:44:07;;;;;;;0.00;0.00;;;22.40;94.70;;;;;;5000148;28;20231;-77
2022/09/30 08:46:58;;;;;;;0.10;0.10;;;22.20;95.20;;;;;;5001482;28;20083;-80
2022/09/30 08:49:33;;;;;;;0.00;0.00;;;22.00;95.30;;;;;;5001189;28;20147;-78
2022/09/30 08:52:01;;;;;;;0.00;0.00;;;21.90;95.10;;;;;;5000675;28;20409;-77
2022/09/30 08:54:32;;;;;;;0.00;0.00;;;21.90;95.90;;;;;;5001328;28;20030;-78
2022/09/30 08:57:01;;;;;;;0.08;0.08;;;21.80;95.80;;;;;;5002078;28;20032;-78
2022/09/30 08:59:41;;;;;;;0.10;0.10;;;21.60;95.90;;;;;;5001715;28;20062;-78
2022/09/30 09:02:19;;;;;;;0.10;0.10;;;21.60;96.20;;;;;;5002242;28;20295;-78
2022/09/30 09:04:46;;;;;;;0.00;0.00;;;21.60;96.50;;;;;;5001557;28;20018;-78
2022/09/30 09:07:38;;;;;;;0.10;0.10;;;21.60;96.70;;;;;;5001470;28;20030;-87
2022/09/30 09:10:41;;;;;;;0.10;0.10;;;18.00;96.10;;;;;;5001126;28;20033;-79
2022/09/30 09:13:18;;;;;;;0.10;0.10;;;21.10;96.50;;;;;;4999978;28;20026;-78
2022/09/30 09:15:53;;;;;;;0.10;0.10;;;20.80;97.60;;;;;;5002789;28;20050;-78
2022/09/30 09:18:44;;;;;;;0.10;0.10;;;20.90;98.80;;;;;;5002050;28;20317;-79
2022/09/30 09:21:21;;;;;;;0.10;0.10;;;21.10;98.10;;;;;;5002030;28;20032;-78
2022/09/30 09:23:50;;;;;;;0.00;0.00;;;21.00;98.50;;;;;;5001758;28;20030;-80
2022/09/30 09:26:17;;;;;;;0.10;0.10;;;21.10;97.90;;;;;;5000980;28;20437;-85
2022/09/30 09:29:07;;;;;;;0.10;0.10;;;21.90;98.20;;;;;;5000913;28;20057;-79
2022/09/30 09:31:33;;;;;;;0.10;0.10;;;21.40;97.80;;;;;;5000928;28;20030;-78
2022/09/30 09:34:09;;;;;;;0.10;0.10;;;21.40;98.00;;;;;;5000966;28;20022;-78
2022/09/30 09:37:02;;;;;;;0.10;0.10;;;21.60;97.60;;;;;;5001628;28;20029;-79
2022/09/30 09:39:55;;;;;;;0.10;0.10;;;21.60;97.70;;;;;;5001676;28;20049;-78
2022/09/30 09:42:46;;;;;;;0.13;0.13;;;21.60;97.10;;;;;;5000214;28;20033;-86
2022/09/30 09:45:31;;;;;;;0.10;0.10;;;21.70;97.50;;;;;;5001966;28;20568;-78
2022/09/30 09:47:58;;;;;;;0.08;0.08;;;21.70;98.00;;;;;;5002812;28;20049;-78
2022/09/30 09:50:40;;;;;;;0.00;0.00;;;21.70;98.00;;;;;;5003564;28;20029;-79
2022/09/30 09:53:30;;;;;;;0.10;0.10;;;21.70;97.50;;;;;;5000434;28;20026;-77
2022/09/30 09:55:58;;;;;;;0.00;0.00;;;21.70;98.10;;;;;;4999892;28;20037;-78
2022/09/30 09:58:25;;;;;;;0.30;0.30;;;21.60;98.00;;;;;;4999596;28;20444;-79
2022/09/30 10:03:26;;;;;;;0.00;0.00;;;21.20;99.30;;;;;;5001566;28;20496;-77
2022/09/30 10:06:07;;;;;;;0.10;0.10;;;21.30;99.50;;;;;;5000398;28;20021;-77
2022/09/30 10:08:39;;;;;;;0.00;0.00;;;21.20;99.40;;;;;;5002026;28;20258;-77
2022/09/30 10:11:16;;;;;;;0.10;0.10;;;21.30;99.00;;;;;;4999071;28;20262;-78
2022/09/30 10:13:44;;;;;;;0.10;0.10;;;21.30;99.30;;;;;;5001552;28;20390;-80
2022/09/30 10:16:25;;;;;;;0.10;0.10;;;21.30;99.00;;;;;;5000923;28;20041;-78
2022/09/30 10:18:51;;;;;;;0.10;0.10;;;21.20;98.50;;;;;;4999807;28;20018;-78
2022/09/30 10:21:22;;;;;;;1.65;1.55;;;21.10;98.90;;;;;;5000883;28;20719;-77
2022/09/30 10:23:48;;;;;;;0.00;0.00;;;21.10;98.50;;;;;;5000958;28;20540;-77
2022/09/30 10:26:14;;;;;;;0.10;0.10;;;21.10;97.80;;;;;;4998213;28;20076;-78
2022/09/30 10:28:46;;;;;;;0.10;0.10;;;21.20;98.10;;;;;;4998189;28;20050;-78
2022/09/30 10:31:27;;;;;;;0.10;0.10;;;21.20;97.30;;;;;;4998508;28;20030;-87
2022/09/30 10:34:08;;;;;;;0.10;0.10;;;18.10;96.80;;;;;;4998251;28;20022;-77
2022/09/30 10:36:37;;;;;;;0.10;0.10;;;21.00;97.40;;;;;;4998611;28;20133;-78
2022/09/30 10:39:23;;;;;;;0.10;0.10;;;21.00;97.60;;;;;;4999680;28;20030;-79
2022/09/30 10:42:03;;;;;;;0.10;0.10;;;20.90;97.60;;;;;;4998436;28;20033;-78
2022/09/30 10:44:29;;;;;;;0.10;0.10;;;21.00;97.90;;;;;;4998807;28;20117;-78
2022/09/30 10:47:01;;;;;;;0.00;0.00;;;21.00;98.40;;;;;;4998948;28;20018;-77
2022/09/30 10:49:42;;;;;;;0.10;0.10;;;21.10;98.80;;;;;;4999169;28;20639;-77
2022/09/30 10:52:21;;;;;;;0.10;0.10;;;21.00;99.10;;;;;;4999467;28;20026;-77
2022/09/30 10:54:55;;;;;;;0.10;0.10;;;21.10;99.50;;;;;;4999122;28;20033;-77
2022/09/30 10:57:28;;;;;;;0.80;0.80;;;21.20;99.40;;;;;;4999447;28;20026;-78
2022/09/30 10:59:59;;;;;;;0.10;0.10;;;21.20;99.40;;;;;;4998652;28;20279;-77
2022/09/30 11:02:57;;;;;;;0.10;0.10;;;21.20;98.90;;;;;;4998946;28;20075;-82
2022/09/30 11:05:27;;;;;;;0.10;0.10;;;21.20;98.80;;;;;;4976291;28;20038;-79
2022/09/30 11:07:59;;;;;;;0.10;0.10;;;21.20;99.20;;;;;;4975997;28;20110;-84
2022/09/30 11:10:35;;;;;;;0.10;0.10;;;21.20;98.90;;;;;;4975687;28;20046;-80
2022/09/30 11:13:01;;;;;;;1.40;1.30;;;21.20;99.10;;;;;;4976615;28;20018;-79
2022/09/30 11:15:51;;;;;;;0.10;0.10;;;23.80;99.90;;;;;;4977036;28;20030;-78
2022/09/30 11:18:24;;;;;;;0.10;0.10;;;21.30;99.70;;;;;;4959268;28;20687;-83
2022/09/30 11:21:06;;;;;;;0.00;0.00;;;21.30;99.90;;;;;;4975684;28;20027;-82
2022/09/30 11:23:56;;;;;;;0.00;0.00;;;21.40;99.90;;;;;;4959157;28;20038;-77
2022/09/30 11:27:03;;;;;;;0.20;0.20;;;21.50;99.80;;;;;;4967280;28;20084;-77
2022/09/30 11:29:57;;;;;;;0.10;0.10;;;20.90;99.60;;;;;;4975827;28;20031;-78
2022/09/30 11:32:49;;;;;;;0.10;0.10;;;21.70;99.60;;;;;;4953906;28;20088;-77
2022/09/30 11:35:31;;;;;;;0.10;0.10;;;21.80;99.70;;;;;;4976760;28;20209;-78
2022/09/30 11:38:14;;;;;;;0.10;0.10;;;21.80;99.90;;;;;;4975595;28;20054;-77
2022/09/30 11:40:42;;;;;;;0.10;0.10;;;21.80;98.20;;;;;;4959292;28;20049;-77
2022/09/30 11:43:30;;;;;;;0.10;0.10;;;21.70;98.70;;;;;;4988047;28;20061;-78
2022/09/30 11:46:17;;;;;;;0.10;0.10;;;21.90;98.80;;;;;;4998641;28;20412;-79
2022/09/30 11:48:55;;;;;;;0.10;0.10;;;22.10;98.80;;;;;;4999959;28;20509;-78
2022/09/30 11:51:54;;;;;;;0.10;0.10;;;22.30;98.90;;;;;;4997859;28;20109;-80
2022/09/30 11:54:51;;;;;;;0.40;0.40;;;22.50;98.50;;;;;;4997172;28;20497;-78
2022/09/30 11:57:29;;;;;;;0.20;0.20;;;23.00;96.00;;;;;;4998734;28;20049;-77
2022/09/30 12:00:06;;;;;;;0.10;0.10;;;22.90;96.20;;;;;;4998213;28;20092;-77
2022/09/30 12:02:51;;;;;;;0.00;0.00;;;23.00;96.10;;;;;;4996978;28;20109;-78
2022/09/30 12:05:34;;;;;;;0.10;0.10;;;23.00;96.20;;;;;;4998158;28;20045;-81
2022/09/30 12:08:11;;;;;;;0.10;0.10;;;23.00;96.10;;;;;;4998040;28;20155;-77
2022/09/30 12:10:45;;;;;;;0.25;0.25;;;22.90;96.20;;;;;;5001994;28;20513;-82
2022/09/30 12:13:31;;;;;;;0.10;0.10;;;22.90;96.40;;;;;;5001006;28;20030;-80
2022/09/30 12:15:58;;;;;;;2.92;2.83;;;22.80;96.00;;;;;;5002071;28;20018;-77
2022/09/30 12:18:36;;;;;;;0.10;0.10;;;23.00;96.10;;;;;;5001681;28;20033;-79
2022/09/30 12:21:35;;;;;;;0.75;0.40;;;23.00;95.00;;;;;;5002461;28;20104;-77
2022/09/30 12:24:16;;;;;;;0.10;0.10;;;23.10;95.30;;;;;;5000481;28;20037;-78
2022/09/30 12:26:43;;;;;;;1.05;1.05;;;23.10;94.90;;;;;;5001757;28;20026;-79
2022/09/30 12:32:25;;;;;;;0.10;0.10;;;23.30;94.90;;;;;;5002488;28;20596;-77
2022/09/30 12:35:06;;;;;;;0.10;0.10;;;23.70;93.90;;;;;;5001313;28;20064;-77
2022/09/30 12:38:09;;;;;;;0.05;0.05;;;24.00;92.80;;;;;;5004208;28;20028;-77
2022/09/30 12:40:57;;;;;;;0.10;0.10;;;24.10;91.70;;;;;;5002175;28;20485;-78
2022/09/30 12:43:48;;;;;;;0.10;0.10;;;24.00;91.20;;;;;;5003883;28;20027;-78
2022/09/30 12:46:51;;;;;;;0.00;0.00;;;24.00;91.10;;;;;;5003722;28;20025;-77
2022/09/30 12:49:22;;;;;;;0.20;0.20;;;23.70;90.80;;;;;;5003479;28;20018;-81
2022/09/30 12:52:01;;;;;;;0.00;0.00;;;23.50;91.50;;;;;;5003978;28;20132;-78
2022/09/30 12:54:52;;;;;;;0.00;0.00;;;23.50;91.20;;;;;;5001735;28;20064;-79
2022/09/30 12:57:31;;;;;;;0.10;0.10;;;23.40;91.50;;;;;;5000095;28;20034;-77
2022/09/30 13:00:26;;;;;;;0.10;0.10;;;23.30;91.20;;;;;;5001649;28;20030;-84
2022/09/30 13:03:06;;;;;;;0.08;0.08;;;23.20;90.90;;;;;;5000640;28;20026;-80
2022/09/30 13:05:37;;;;;;;0.10;0.10;;;23.10;91.00;;;;;;5001254;28;20056;-78
2022/09/30 13:08:05;;;;;;;0.00;0.00;;;23.00;91.90;;;;;;4999701;28;20025;-78
2022/09/30 13:10:44;;;;;;;0.10;0.10;;;22.90;91.20;;;;;;5000920;28;20484;-78
2022/09/30 13:13:10;;;;;;;0.10;0.10;;;22.50;90.90;;;;;;4999252;28;20022;-78
2022/09/30 13:15:35;;;;;;;0.10;0.10;;;22.40;91.90;;;;;;5002109;28;20022;-78
2022/09/30 13:18:28;;;;;;;0.10;0.10;;;22.10;91.90;;;;;;5003127;28;20033;-78
2022/09/30 13:21:17;;;;;;;0.00;0.00;;;22.10;92.20;;;;;;4976708;28;20105;-78
2022/09/30 13:23:49;;;;;;;0.05;0.05;;;22.00;92.30;;;;;;4977415;28;20386;-79
2022/09/30 13:26:26;;;;;;;0.00;0.00;;;21.90;92.30;;;;;;4961512;28;20331;-83
2022/09/30 13:29:13;;;;;;;0.25;0.25;;;21.70;92.50;;;;;;4961513;28;20049;-77
2022/09/30 13:31:47;;;;;;;0.10;0.10;;;21.70;92.60;;;;;;4978299;28;20364;-88
2022/09/30 13:34:26;;;;;;;0.10;0.10;;;21.60;93.30;;;;;;4978359;28;20026;-78